< < Back
Terminal Aerodrome Forecast


Current Version              Previous Versions:   1  2  3  4  5  6  7  8  9  

Terminal Aerodrome Forecast

514
FTUS42 KMLB 261700
TAFDAB
TAF
KDAB 261721Z 2618/2718 29012KT P6SM SCT015 OVC110
     FM262100 31010KT P6SM FEW015 SCT150
     FM270000 29004KT P6SM SKC=



Latest METAR

205
SAUS80 KWBC 261800 RRC
MTRDAB
METAR KDAB 261753Z 29010KT 10SM FEW010 SCT085 BKN110 13/11 A3011 RMK AO2
SLP196 60009 T01280106 10128 20117 50004


USA.gov is the U.S. government's official web portal to all federal, state and local government web resources and services.